NCAR-RAP Real-Time Weather Data

Output produced by METARs form (14 October 2019  23:45 UTC)
found at http://weather.rap.ucar.edu/surface/
 
KBZN 142256Z 30015G19KT 10SM CLR 12/M04 A3001 RMK AO2 SLP167 T01171039